Date,TemperatureHighF,TemperatureAvgF,TemperatureLowF,DewpointHighF,DewpointAvgF,DewpointLowF,HumidityHigh,HumidityAvg,HumidityLow,PressureMaxIn,PressureMinIn,WindSpeedMaxMPH,WindSpeedAvgMPH,GustSpeedMaxMPH,PrecipitationSumIn
2013-1-1,53.4,50.0,47.4,53.2,44.6,30.8,100,84,50,30.12,29.94,14,1,14,0.58
2013-1-2,53.9,50.5,46.8,51.5,47.8,41.8,100,91,65,30.14,29.90,6,0,6,0.06
2013-1-3,48.9,43.7,36.7,47.6,42.3,28.0,100,95,66,30.29,30.09,10,1,10,0.00
2013-1-4,57.0,41.5,30.9,36.6,30.3,24.6,100,67,40,30.34,30.22,14,2,14,0.00
2013-1-5,50.7,41.0,29.0,40.1,29.9,24.0,100,66,46,30.38,30.22,8,1,8,0.02
2013-1-6,59.7,48.0,40.3,48.7,41.4,31.8,100,79,58,30.23,30.04,8,1,8,0.01
2013-1-7,56.2,42.3,33.0,37.4,32.2,29.8,99,70,40,30.41,30.21,9,1,9,0.00
2013-1-8,52.9,42.1,30.8,48.9,36.9,29.3,100,83,61,30.45,30.35,4,0,4,0.00
2013-1-9,63.6,55.4,47.6,59.7,51.8,42.9,100,88,72,30.45,30.38,7,0,7,0.00
2013-1-10,68.0,57.6,47.3,58.5,52.6,47.1,100,85,58,30.50,30.35,7,1,7,0.03
2013-1-11,58.0,52.3,50.7,58.0,52.3,50.6,100,100,100,30.35,30.17,6,0,6,0.53
2013-1-12,74.5,61.4,52.9,69.8,59.8,52.9,100,95,68,30.18,30.11,11,1,11,0.01
2013-1-13,73.4,62.1,54.8,67.8,60.8,54.8,100,96,73,30.16,30.07,11,1,11,0.00
2013-1-14,68.0,63.3,58.8,67.9,63.3,58.8,100,100,100,30.13,30.06,10,1,10,0.50
2013-1-15,63.8,53.2,46.3,63.8,53.2,46.3,100,100,100,30.16,30.05,12,0,12,0.56
2013-1-16,55.4,49.4,45.6,55.4,49.4,45.6,100,100,100,30.06,29.96,4,0,4,0.58
2013-1-17,55.9,49.2,40.2,55.8,49.2,40.1,100,100,100,30.21,29.74,17,2,17,1.06
2013-1-18,57.0,42.8,34.3,40.7,34.1,29.4,100,75,40,30.49,30.21,10,2,10,0.00
2013-1-19,59.1,42.0,30.2,43.3,33.3,29.1,100,75,40,30.49,30.18,9,2,9,0.01
2013-1-20,68.5,49.4,35.3,45.0,36.1,29.8,100,63,37,30.18,30.02,13,2,13,0.00
2013-1-21,67.1,47.5,32.9,46.3,32.9,22.0,100,63,32,30.08,29.94,20,3,20,0.00
2013-1-22,49.7,37.7,29.7,31.1,21.7,16.9,89,54,32,30.24,30.02,8,1,8,0.00
2013-1-23,56.7,39.7,25.0,36.0,25.9,17.3,95,59,40,30.33,30.07,12,2,12,0.00
2013-1-24,54.4,43.3,31.1,40.9,24.4,8.2,96,51,21,30.48,30.00,14,4,14,0.00
2013-1-25,34.4,30.7,27.1,33.6,22.6,12.7,99,73,49,30.50,30.10,8,1,8,0.00
2013-1-26,56.4,39.1,30.0,42.3,34.2,29.4,100,85,45,30.33,30.09,6,0,6,0.04
2013-1-27,50.4,39.2,31.8,42.3,33.0,29.5,100,80,58,30.54,30.33,7,0,7,0.00
2013-1-28,54.6,47.7,42.5,52.2,40.4,31.8,98,76,64,30.46,30.26,10,1,10,0.00
2013-1-29,71.5,58.2,41.7,65.3,55.4,41.6,100,91,69,30.27,30.03,10,2,10,0.01
2013-1-30,69.2,64.5,51.1,68.4,63.2,49.6,100,96,81,30.03,29.48,21,8,21,0.69
2013-1-31,57.6,46.9,38.5,49.9,33.6,26.0,96,62,39,30.06,29.61,19,7,19,0.00
2013-2-1,48.5,39.3,29.0,31.4,21.1,12.9,73,50,29,30.35,29.98,20,4,20,0.00
2013-2-2,50.5,35.8,24.0,41.1,26.7,17.1,99,72,34,30.37,30.04,14,3,14,0.03
2013-2-3,60.7,44.9,34.3,42.6,33.9,25.3,98,69,37,30.04,29.87,18,5,18,0.00
2013-2-4,54.6,42.7,32.1,37.3,29.1,23.1,86,60,40,30.12,30.01,8,1,8,0.00
2013-2-5,69.0,51.7,39.8,49.3,39.0,30.1,92,63,41,30.01,29.90,14,3,14,0.00
2013-2-6,70.2,50.5,35.8,47.6,36.4,28.3,100,66,23,30.19,29.99,6,0,6,0.00
2013-2-7,48.5,44.9,42.0,43.3,36.0,27.8,100,74,48,30.23,29.99,10,2,10,0.53
2013-2-8,62.4,49.3,41.2,51.6,42.2,30.8,100,79,44,30.14,29.90,18,4,18,0.00
2013-2-9,64.1,47.7,38.4,37.0,28.4,24.1,70,50,23,30.33,30.12,19,3,19,0.00
2013-2-10,60.7,47.4,37.5,54.3,37.8,28.8,100,72,35,30.41,30.17,8,1,8,0.43
2013-2-11,58.8,53.2,47.4,58.8,53.2,47.3,100,100,100,30.17,29.96,12,1,12,0.17
2013-2-12,62.1,51.7,43.2,51.5,41.7,30.3,100,73,33,30.10,29.88,8,0,8,0.16
2013-2-13,53.4,47.5,42.5,51.0,45.5,35.1,100,93,70,29.91,29.66,17,2,17,0.07
2013-2-14,42.8,41.3,40.8,36.4,34.1,32.8,80,75,73,29.93,29.89,12,4,12,0.00
2013-2-18,49.3,46.3,43.3,33.0,28.9,27.6,65,51,46,30.23,30.20,5,0,5,0.00
2013-2-19,55.7,45.4,40.5,48.6,36.6,21.5,100,74,41,30.21,29.90,12,2,12,0.24
2013-2-20,58.9,42.3,29.1,32.2,25.4,20.5,98,55,28,30.12,30.03,7,0,7,0.00
2013-2-21,63.4,45.4,29.6,42.9,27.4,21.4,98,54,22,30.22,30.07,5,0,5,0.07
2013-2-22,45.9,41.0,39.7,43.2,40.8,39.6,100,99,88,30.26,30.08,8,1,8,0.50
2013-2-23,49.2,43.3,38.8,49.0,43.3,38.8,100,100,100,30.14,29.83,6,0,6,0.41
2013-2-24,68.0,52.5,41.2,48.6,42.8,34.9,100,75,35,30.01,29.84,6,0,6,0.00
2013-2-25,48.2,43.0,38.0,38.7,31.1,28.4,92,64,50,30.15,30.00,10,3,10,0.00
2013-2-26,44.3,38.1,33.7,44.3,38.0,33.3,100,100,84,30.04,29.59,16,3,16,0.41
2013-2-27,63.0,49.9,39.2,45.0,40.1,35.1,100,72,47,29.81,29.66,14,5,14,0.00
2013-2-28,49.5,44.1,38.4,39.5,31.6,25.8,69,61,54,29.90,29.74,10,2,10,0.00
2013-3-1,53.6,43.4,32.8,41.1,31.5,26.9,95,64,45,29.93,29.83,9,1,9,0.00
2013-3-2,51.9,42.9,35.6,44.6,34.0,24.4,100,72,50,29.94,29.82,12,2,12,0.07
2013-3-3,50.9,38.4,30.7,27.0,22.5,19.1,76,54,35,30.01,29.88,12,4,12,0.00
2013-3-4,62.2,43.8,27.1,34.5,24.5,17.8,96,49,23,30.14,30.01,9,2,9,0.00
2013-3-5,54.7,47.7,43.5,52.2,41.5,30.9,100,80,61,30.07,29.65,15,1,15,0.56
2013-3-6,52.7,42.2,35.2,38.0,29.1,23.9,77,60,44,30.11,29.68,22,6,22,0.02
2013-3-7,63.7,45.2,31.4,36.8,30.6,27.1,100,60,31,30.24,30.11,12,2,12,0.00
2013-3-8,62.5,45.6,30.7,33.6,26.5,10.8,99,53,14,30.31,30.18,8,1,8,0.00
2013-3-9,67.5,48.3,32.2,38.6,31.5,26.5,100,56,26,30.35,30.23,6,0,6,0.00
2013-3-10,70.2,53.8,39.5,48.6,37.8,32.8,99,59,28,30.29,30.15,9,1,9,0.00
2013-3-11,68.8,56.5,45.8,61.9,48.8,38.6,100,77,54,30.17,29.82,14,2,14,0.69
2013-3-12,69.4,59.8,49.7,60.2,47.8,32.8,100,70,32,30.04,29.75,10,2,10,0.18
2013-3-13,66.0,48.3,35.2,39.6,31.3,22.6,100,57,25,30.17,30.00,20,4,20,0.00
2013-3-14,61.9,46.1,33.0,31.9,23.9,16.1,66,43,21,30.30,30.15,15,3,15,0.00
2013-3-15,74.7,52.5,31.8,44.3,34.6,23.5,97,54,30,30.19,29.90,15,3,15,0.00
2013-3-16,83.2,68.4,57.8,50.1,43.9,40.4,60,43,28,29.93,29.77,21,6,21,0.00
2013-3-17,84.5,66.9,51.2,51.4,45.2,40.8,71,47,27,30.11,29.86,14,4,14,0.00
2013-3-18,51.3,48.3,46.2,42.8,41.6,40.6,88,78,70,30.14,30.11,12,4,12,0.00
2013-3-19,56.9,53.2,48.7,35.3,28.8,24.5,48,39,34,30.09,30.03,8,1,8,0.00
2013-3-20,66.7,52.9,45.2,31.7,22.4,14.7,51,31,20,30.11,29.81,13,3,13,0.00
2013-3-21,54.9,42.0,31.1,36.2,23.9,16.9,96,52,24,29.96,29.81,12,2,12,0.00
2013-3-22,55.4,41.4,28.3,33.9,25.7,19.9,97,56,34,30.07,29.96,10,1,10,0.00
2013-3-23,54.4,47.9,44.5,53.0,43.5,29.8,100,86,50,30.03,29.87,7,0,7,0.07
2013-3-24,49.7,44.9,43.2,49.6,44.9,43.2,100,100,99,29.91,29.55,12,2,12,0.75
2013-3-25,52.4,44.4,38.1,45.7,32.7,24.6,100,66,42,29.94,29.56,23,7,23,0.02
2013-3-26,53.4,42.9,29.7,34.9,28.1,24.8,100,58,39,30.20,29.93,15,5,15,0.00
2013-3-27,61.4,45.8,34.9,34.5,28.3,24.0,92,53,28,30.27,30.16,10,2,10,0.00
2013-3-28,66.3,46.7,31.4,37.2,28.1,20.5,98,55,22,30.32,30.17,9,1,9,0.00
2013-3-29,69.7,49.1,32.5,45.7,33.1,25.0,99,58,25,30.34,30.21,12,2,12,0.00
2013-3-30,72.2,57.6,46.8,51.3,45.4,40.3,100,69,34,30.22,30.06,8,1,8,0.02
2013-3-31,74.8,61.7,52.8,61.7,55.3,46.7,100,82,48,30.09,29.85,15,3,15,0.62
2013-4-1,80.0,64.9,51.1,61.8,47.1,35.6,100,61,24,29.99,29.84,17,3,17,0.03
2013-4-2,74.7,58.2,41.5,44.8,35.3,26.1,98,48,19,30.15,29.98,10,2,10,0.00
2013-4-3,64.2,56.2,49.0,39.8,28.6,21.8,55,35,24,30.28,30.12,9,1,9,0.00
2013-4-4,55.0,44.2,38.4,40.1,35.3,26.9,100,75,45,30.25,29.99,13,3,13,0.55
2013-4-5,70.0,51.7,37.5,48.1,41.4,33.1,100,73,29,30.06,29.90,9,1,9,0.00
2013-4-6,73.5,56.6,39.3,48.1,38.9,31.3,100,59,23,30.23,30.06,8,1,8,0.00
2013-4-7,78.3,61.0,43.7,54.5,45.2,39.1,98,59,33,30.27,30.11,12,2,12,0.00
2013-4-8,80.5,65.7,52.6,59.3,53.3,48.3,100,69,38,30.19,30.07,13,2,13,0.00
2013-4-9,86.8,69.6,53.5,60.8,55.2,52.4,100,66,32,30.22,30.11,12,2,12,0.00
2013-4-10,88.5,76.8,61.4,63.8,57.3,54.1,97,54,34,30.14,29.97,13,2,13,0.00
2013-4-11,85.3,72.7,61.5,71.7,61.9,55.3,100,71,40,30.00,29.74,15,2,15,0.04
2013-4-12,84.5,72.0,60.6,72.0,55.4,36.8,100,64,22,29.85,29.68,18,5,18,0.80
2013-4-13,81.5,64.3,49.6,50.2,42.0,34.8,86,48,20,30.03,29.85,8,1,8,0.00
2013-4-14,73.2,61.5,47.7,58.7,47.9,41.4,98,64,37,30.09,29.98,7,0,7,0.05
2013-4-15,77.7,63.9,57.8,64.2,59.4,55.1,100,87,49,30.22,29.98,6,1,6,0.26
2013-4-16,83.5,70.4,61.7,67.3,61.4,56.4,100,77,42,30.30,30.19,6,0,6,0.00
2013-4-17,86.2,68.8,60.5,71.3,65.1,59.9,100,90,43,30.26,30.14,8,1,8,0.59
2013-4-18,84.0,70.3,60.1,70.3,63.5,57.6,100,82,42,30.17,29.99,7,1,7,0.00
2013-4-19,73.1,66.3,54.9,71.4,65.2,53.3,100,96,81,30.00,29.79,14,3,14,0.60
2013-4-20,71.0,56.4,45.1,53.0,38.5,32.1,94,53,28,30.28,29.95,12,2,12,0.00
2013-4-21,68.1,56.3,44.1,47.4,40.0,34.6,98,58,30,30.42,30.27,13,2,13,0.00
2013-4-22,67.0,56.0,47.6,48.6,41.6,35.5,91,61,36,30.41,30.22,10,2,10,0.00
2013-4-23,77.7,59.8,44.2,56.1,45.8,39.8,96,64,33,30.31,30.10,9,0,9,0.00
2013-4-24,78.9,67.5,52.9,65.7,58.2,51.9,100,75,46,30.16,30.03,15,4,15,0.00
2013-4-25,79.3,65.7,54.9,65.6,45.5,30.8,100,53,19,30.30,30.08,7,1,7,0.00
2013-4-26,78.3,62.2,48.5,50.9,40.7,34.9,85,49,23,30.44,30.30,9,1,9,0.00
2013-4-27,65.6,60.7,58.1,64.1,57.7,46.6,100,91,56,30.37,30.26,5,0,5,0.51
2013-4-28,60.4,57.4,55.2,60.3,57.4,55.1,100,100,100,30.27,30.07,7,0,7,2.19
2013-4-29,79.1,65.8,57.5,68.3,61.1,57.1,100,87,49,30.09,29.93,9,1,9,0.10
2013-4-30,80.3,66.8,56.1,67.9,61.7,55.8,100,86,48,30.19,30.00,7,1,7,0.01
2013-5-1,69.1,64.0,59.1,65.1,59.4,55.6,100,86,65,30.29,30.19,10,2,10,0.00
2013-5-2,62.3,59.9,57.9,62.3,59.8,57.9,100,100,96,30.31,30.24,9,2,9,0.09
2013-5-3,65.6,60.2,56.7,62.1,58.8,56.1,100,95,77,30.24,30.10,12,2,12,0.09
2013-5-4,59.6,55.2,52.2,58.6,52.0,44.3,100,90,66,30.12,29.94,14,4,14,0.61
2013-5-5,55.5,52.9,50.3,55.5,52.9,50.3,100,100,100,29.98,29.82,13,3,13,1.46
2013-5-6,69.8,60.1,52.2,60.0,53.8,47.7,100,82,52,29.95,29.81,12,1,12,0.01
2013-5-7,74.3,58.8,46.0,61.8,52.4,44.8,100,83,37,29.99,29.86,9,1,9,0.30
2013-5-8,79.3,64.9,51.4,64.7,56.9,51.4,100,79,46,30.06,29.95,13,2,13,0.01
2013-5-9,86.5,66.4,53.3,70.0,59.6,52.6,100,84,32,30.11,30.02,9,0,9,0.07
2013-5-10,85.2,70.0,56.4,70.7,61.2,56.3,100,78,42,30.11,29.98,12,2,12,0.01
2013-5-11,80.5,71.4,62.9,67.4,63.5,56.1,100,78,52,30.00,29.84,14,3,14,0.01
2013-5-12,80.3,67.0,54.5,64.6,48.5,34.0,95,56,20,30.08,29.88,12,2,12,0.00
2013-5-13,73.5,58.8,44.2,50.1,39.2,31.4,100,54,22,30.20,30.06,9,1,9,0.00
2013-5-14,78.3,61.6,43.1,52.8,45.3,39.8,100,60,31,30.27,30.11,9,1,9,0.00
2013-5-15,93.0,76.5,61.3,63.0,56.5,51.4,96,54,29,30.12,29.98,12,2,12,0.00
2013-5-16,85.3,73.5,61.0,66.4,59.8,55.3,98,66,38,30.06,29.99,10,1,10,0.00
2013-5-17,88.5,74.3,60.9,69.4,61.9,56.3,100,71,34,30.12,30.04,12,1,12,0.00
2013-5-18,77.2,70.0,64.8,74.6,69.1,64.2,100,97,81,30.16,30.08,6,0,6,0.52
2013-5-19,79.3,72.1,67.4,74.5,69.9,67.3,100,93,69,30.14,30.03,6,0,6,0.18
2013-5-20,87.5,73.7,64.1,76.1,68.4,64.0,100,86,48,30.14,30.04,6,0,6,0.00
2013-5-21,92.8,77.4,65.4,76.1,67.9,61.3,100,77,38,30.07,29.97,8,0,8,0.00
2013-5-22,88.8,76.3,65.6,72.8,68.3,64.4,100,79,49,30.04,29.88,12,1,12,0.25
2013-5-23,87.5,74.4,65.3,72.9,65.1,56.2,100,77,40,30.00,29.85,11,1,11,0.27
2013-5-24,78.8,68.8,58.1,63.0,49.2,34.9,100,55,22,30.25,29.93,22,3,22,0.00
2013-5-25,82.3,66.5,53.2,53.5,45.5,39.2,78,50,26,30.33,30.19,12,1,12,0.00
2013-5-26,80.5,66.3,54.9,57.8,51.8,45.8,98,64,31,30.32,30.19,7,0,7,0.00
2013-5-27,88.5,71.5,55.7,64.0,57.6,52.8,100,68,33,30.28,30.16,7,0,7,0.01
2013-5-28,89.3,74.3,61.9,68.8,62.7,58.3,100,72,37,30.25,30.18,7,1,7,0.00
2013-5-29,90.0,76.0,62.1,69.6,62.4,57.0,100,67,35,30.27,30.19,8,0,8,0.00
2013-5-30,88.8,75.3,63.4,70.0,63.6,57.9,100,72,36,30.30,30.20,7,0,7,0.00
2013-5-31,92.1,77.5,66.4,72.3,66.0,59.4,100,73,35,30.26,30.14,9,1,9,0.00
2013-6-1,90.8,79.2,70.1,72.6,66.6,60.8,99,69,39,30.17,30.05,10,1,10,0.00
2013-6-2,79.8,74.8,70.2,78.2,71.9,66.7,100,91,70,30.08,29.94,7,1,7,1.06
2013-6-3,87.0,74.5,67.4,76.9,71.0,67.0,100,90,53,30.00,29.88,7,0,7,0.03
2013-6-4,87.5,76.5,67.1,74.7,68.2,61.4,100,79,44,30.09,29.97,7,1,7,0.01
2013-6-5,86.0,75.5,70.5,75.5,71.3,68.5,100,88,57,30.11,29.99,10,1,10,0.65
2013-6-6,79.8,72.3,67.8,77.6,72.1,67.7,100,99,84,30.02,29.82,8,0,8,0.69
2013-6-7,87.8,75.0,68.2,78.1,72.3,67.0,100,93,57,29.87,29.70,9,1,9,0.12
2013-6-8,88.3,77.0,67.7,74.1,69.5,64.2,100,81,48,30.11,29.85,7,1,7,0.01
2013-6-9,88.4,74.8,68.3,77.7,72.1,68.2,100,93,56,30.17,30.08,10,0,10,1.61
2013-6-10,81.5,75.2,70.4,78.7,72.8,68.9,100,93,68,30.10,29.95,12,2,12,0.50
2013-6-11,91.1,79.6,71.1,77.9,70.7,59.9,100,79,37,30.04,29.97,7,1,7,0.16
2013-6-12,96.3,81.2,67.0,81.8,72.1,65.5,100,78,40,30.06,29.97,7,1,7,0.00
2013-6-13,98.0,83.6,73.2,79.6,72.5,64.0,100,74,35,29.97,29.74,15,2,15,0.01
2013-6-14,89.3,76.4,63.6,73.1,61.2,54.4,100,65,31,30.07,29.83,10,1,10,0.01
2013-6-15,89.0,74.3,60.8,67.5,61.4,57.6,100,69,36,30.17,30.07,9,1,9,0.00
2013-6-16,91.8,77.1,63.9,73.0,65.9,60.1,100,73,37,30.18,30.05,9,1,9,0.00
2013-6-17,86.0,77.1,71.1,79.5,74.3,68.2,100,92,62,30.08,29.98,18,1,18,1.62
2013-6-18,86.1,76.1,71.5,78.7,74.3,71.5,100,95,70,30.01,29.82,13,1,13,0.49
2013-6-19,86.5,76.1,69.4,73.0,68.8,62.8,100,81,46,30.15,29.94,6,1,6,0.00
2013-6-20,85.6,75.6,67.8,74.5,68.3,62.6,100,81,49,30.26,30.13,7,1,7,0.01
2013-6-21,87.3,75.8,65.6,70.1,65.8,59.0,100,75,41,30.30,30.20,6,1,6,0.00
2013-6-22,88.3,76.2,64.4,73.7,66.0,59.1,100,75,40,30.26,30.14,7,1,7,0.00
2013-6-23,92.2,78.6,69.3,75.8,71.4,65.2,100,82,44,30.25,30.14,6,0,6,0.02
2013-6-24,93.2,80.6,70.1,78.2,71.7,65.9,100,78,43,30.25,30.13,8,1,8,0.02
2013-6-25,94.7,81.4,72.6,76.5,72.3,65.9,100,78,40,30.19,30.06,10,1,10,0.00
2013-6-26,94.8,81.7,73.1,78.2,73.5,68.2,100,79,43,30.09,29.94,8,1,8,0.00
2013-6-27,95.3,82.3,74.1,81.8,75.3,70.0,100,83,45,30.00,29.76,12,2,12,0.55
2013-6-28,97.0,82.9,70.7,80.6,71.9,65.7,100,74,39,29.83,29.65,10,2,10,0.01
2013-6-29,92.5,81.5,71.0,76.7,70.2,62.3,100,73,38,29.75,29.66,9,1,9,0.00
2013-6-30,88.8,78.3,72.0,78.6,73.3,65.7,100,86,47,29.86,29.73,5,0,5,0.00
2013-7-1,86.5,77.3,70.8,77.6,73.3,69.0,100,89,58,30.00,29.83,8,0,8,0.48
2013-7-2,84.7,76.7,72.1,80.7,75.2,72.1,100,96,70,30.17,29.99,6,0,6,0.96
2013-7-3,84.7,76.3,70.3,78.3,74.9,70.2,100,96,72,30.26,30.14,9,0,9,0.32
2013-7-4,83.8,73.2,68.0,81.0,72.9,68.0,100,99,81,30.25,30.16,7,0,7,2.01
2013-7-5,88.6,76.5,70.0,78.7,73.6,69.1,100,92,53,30.27,30.20,8,0,8,0.33
2013-7-6,89.0,78.6,74.0,81.1,76.3,71.3,100,94,59,30.25,30.15,7,0,7,0.24
2013-7-7,88.5,79.8,73.9,80.0,75.1,70.7,100,88,57,30.21,30.11,10,1,10,0.14
2013-7-8,90.2,79.2,73.4,82.8,75.6,70.6,100,90,54,30.23,30.14,5,0,5,0.62
2013-7-9,93.3,81.1,71.4,80.9,75.3,68.5,100,85,47,30.23,30.09,7,1,7,0.30
2013-7-10,89.0,79.1,72.5,82.0,76.5,72.3,100,93,62,30.19,29.99,6,0,6,0.04
2013-7-11,85.8,79.2,75.0,81.4,77.8,75.0,100,96,72,30.02,29.91,5,0,5,0.01
2013-7-12,90.9,77.5,69.8,79.7,74.2,69.8,100,91,56,30.03,29.92,9,1,9,0.73
2013-7-13,80.8,73.5,67.4,78.4,72.9,67.0,100,98,85,30.13,30.03,7,1,7,0.04
2013-7-14,81.8,76.3,72.9,78.9,76.0,72.7,100,99,85,30.31,30.12,9,1,9,0.23
2013-7-15,89.1,78.6,70.5,79.8,73.9,68.7,100,88,53,30.36,30.28,8,1,8,0.11
2013-7-16,94.2,81.6,72.2,80.0,74.5,66.7,100,83,43,30.35,30.27,4,0,4,0.09
2013-7-17,94.7,80.7,72.9,81.4,74.6,69.0,100,85,46,30.31,30.16,13,0,13,0.66
2013-7-18,93.7,80.7,69.9,81.1,73.9,66.8,100,83,45,30.24,30.11,4,0,4,0.00
2013-7-19,93.8,82.3,71.8,80.9,75.0,68.9,100,82,47,30.17,30.03,8,1,8,0.01
2013-7-20,92.3,80.1,74.2,80.5,77.2,69.2,100,92,54,30.10,29.99,10,1,10,1.54
2013-7-21,91.5,78.3,72.0,81.1,75.8,71.0,100,93,54,30.06,29.97,6,0,6,0.85
2013-7-22,90.5,81.0,73.7,78.3,74.5,69.5,100,83,52,30.05,29.88,10,2,10,0.02
2013-7-23,93.3,81.7,71.5,79.8,73.3,65.7,100,79,41,29.93,29.82,9,1,9,0.00
2013-7-24,92.5,80.4,71.0,77.9,73.6,67.2,100,82,48,29.89,29.80,8,1,8,0.00
2013-7-25,90.0,76.7,69.4,78.6,71.8,67.1,100,87,50,30.06,29.88,8,1,8,1.66
2013-7-26,86.5,75.9,68.5,81.2,73.8,68.5,100,94,57,30.13,30.03,6,0,6,0.12
2013-7-27,88.4,78.2,72.3,81.1,75.3,70.4,100,92,57,30.06,29.94,7,1,7,0.83
2013-7-28,91.0,78.9,69.6,77.2,71.4,65.0,100,81,44,30.06,29.93,9,1,9,0.01
2013-7-29,89.6,77.2,66.8,77.9,70.3,63.8,100,83,44,30.19,30.04,5,0,5,0.00
2013-7-30,86.8,76.7,66.4,78.7,70.8,65.2,100,84,54,30.25,30.16,7,0,7,0.00
2013-7-31,81.2,76.6,72.7,80.2,76.3,72.7,100,99,89,30.21,30.01,5,0,5,0.17
2013-8-1,90.2,78.8,73.1,80.7,76.7,72.6,100,94,58,30.04,29.93,9,0,9,0.08
2013-8-2,90.8,79.4,69.4,79.5,72.5,66.5,100,83,47,30.07,29.96,5,0,5,0.00
2013-8-3,92.0,80.5,72.1,80.2,72.8,63.1,100,81,41,30.08,29.99,8,1,8,0.01
2013-8-4,91.8,80.0,71.3,76.6,70.8,65.4,100,77,45,30.07,29.98,8,1,8,0.00
2013-8-5,87.5,77.6,69.2,78.5,71.1,66.1,100,82,53,30.11,30.00,6,0,6,0.00
2013-8-6,84.5,79.0,71.4,79.4,76.3,71.4,100,92,73,30.10,30.01,6,1,6,0.00
2013-8-7,80.2,76.6,73.1,80.2,76.6,73.0,100,100,98,30.11,30.04,5,0,5,0.41
2013-8-8,87.0,79.5,73.2,82.2,75.7,69.6,100,90,61,30.11,30.05,9,1,9,0.00
2013-8-9,93.8,80.0,72.7,81.8,77.0,70.5,100,92,50,30.13,30.06,12,1,12,0.45
2013-8-10,94.9,80.3,73.8,83.0,77.2,69.9,100,92,48,30.17,30.10,9,1,9,0.23
2013-8-11,95.7,79.2,71.0,81.2,75.0,70.4,100,90,45,30.17,30.10,10,1,10,0.38
2013-8-12,94.0,80.5,71.4,82.6,76.0,69.1,100,88,48,30.13,30.00,10,0,10,0.10
2013-8-13,93.2,81.4,73.3,80.8,74.8,70.3,100,83,48,30.02,29.85,9,2,9,0.02
2013-8-14,83.6,75.7,70.7,76.1,70.8,65.5,100,86,57,30.10,29.91,6,0,6,0.01
2013-8-15,76.6,71.0,65.6,72.0,64.4,57.6,99,81,55,30.17,30.09,10,1,10,0.00
2013-8-16,75.3,68.6,63.5,70.0,66.0,62.8,100,92,68,30.19,30.11,8,1,8,0.24
2013-8-17,72.8,67.8,64.6,71.0,66.3,64.2,100,95,80,30.21,30.15,9,1,9,0.07
2013-8-18,78.8,73.9,69.7,76.8,73.3,69.5,100,98,84,30.26,30.17,4,0,4,0.17
2013-8-19,80.1,72.3,68.4,76.3,71.8,68.2,100,98,79,30.23,30.12,4,0,4,0.38
2013-8-20,80.3,74.2,68.4,78.7,73.5,68.4,100,98,82,30.24,30.15,3,0,3,0.00
2013-8-21,81.5,75.2,71.1,79.9,75.1,71.1,100,100,91,30.27,30.17,2,0,2,0.96
2013-8-22,91.2,77.7,69.9,80.1,74.8,67.1,100,92,47,30.21,30.07,7,0,7,0.08
2013-8-23,92.7,77.5,68.4,79.7,71.5,64.7,100,85,42,30.11,30.01,12,1,12,0.00
2013-8-24,85.3,74.7,68.0,74.0,66.6,59.7,100,79,45,30.33,30.11,12,2,12,0.00
2013-8-25,84.3,71.4,62.5,68.6,63.9,57.1,100,81,40,30.42,30.31,6,1,6,0.01
2013-8-26,86.8,72.6,61.2,72.9,65.1,59.7,100,81,42,30.37,30.18,6,0,6,0.00
2013-8-27,92.7,76.5,64.7,78.7,69.2,62.1,100,83,38,30.21,30.06,6,0,6,0.01
2013-8-28,93.4,79.5,69.6,78.6,72.6,66.5,100,83,42,30.09,29.99,6,0,6,0.00
2013-8-29,96.8,81.8,69.9,81.3,73.9,67.4,100,81,40,30.02,29.94,10,1,10,0.00
2013-8-30,88.2,80.2,74.9,80.5,75.4,69.5,100,87,55,30.10,29.98,7,0,7,0.00
2013-8-31,92.0,78.0,72.5,80.4,75.8,67.5,100,94,52,30.01,29.92,8,1,8,0.43
2013-9-1,93.0,79.5,71.0,81.6,75.1,67.3,100,88,46,29.97,29.86,13,1,13,0.02
2013-9-2,90.5,80.5,73.5,80.5,74.4,68.9,100,84,50,29.95,29.87,7,0,7,0.00
2013-9-3,91.3,78.0,69.4,79.7,72.3,64.7,100,86,44,30.02,29.88,8,0,8,0.06
2013-9-4,88.6,76.7,68.1,77.3,70.0,62.6,100,83,46,30.14,30.01,5,0,5,0.00
2013-9-5,93.0,78.1,68.0,79.9,70.5,61.9,100,82,37,30.16,30.10,6,0,6,0.01
2013-9-6,86.8,74.6,65.4,71.7,66.1,59.7,100,79,42,30.22,30.11,9,1,9,0.00
2013-9-7,89.8,75.2,65.8,73.7,67.2,61.7,100,81,40,30.18,30.03,7,0,7,0.00
2013-9-8,90.5,76.1,65.4,78.1,69.9,63.6,100,85,43,30.04,29.98,5,0,5,0.01
2013-9-9,88.8,77.6,68.5,76.8,70.7,64.5,100,82,46,30.19,30.04,6,0,6,0.00
2013-9-10,93.3,77.7,67.4,78.2,70.7,64.2,100,83,40,30.27,30.19,5,0,5,0.01
2013-9-11,95.2,78.7,67.0,77.8,70.2,63.1,100,80,36,30.26,30.14,6,0,6,0.00
2013-9-12,93.7,77.2,69.4,78.2,72.3,65.2,100,88,41,30.14,29.91,15,1,15,0.01
2013-9-13,90.1,76.0,67.2,74.8,64.7,54.3,100,73,34,29.94,29.81,12,1,12,0.00
2013-9-14,82.2,69.1,59.4,64.1,57.0,51.9,98,68,40,30.14,29.95,8,1,8,0.00
2013-9-15,82.2,69.9,61.3,73.7,64.6,61.1,100,86,53,30.24,30.14,7,0,7,0.00
2013-9-16,89.5,75.1,65.7,74.2,67.2,58.4,100,81,37,30.19,30.09,6,0,6,0.01
2013-9-17,78.7,71.4,66.8,67.6,60.1,55.6,91,68,50,30.32,30.19,9,2,9,0.00
2013-9-18,77.7,69.3,62.4,67.8,61.1,56.6,100,77,51,30.32,30.19,7,0,7,0.00
2013-9-19,86.0,71.7,60.9,73.9,65.7,60.9,100,84,45,30.22,30.11,5,0,5,0.00
2013-9-20,92.3,74.9,63.7,72.3,66.5,60.9,100,80,37,30.13,29.96,8,1,8,0.00
2013-9-21,75.7,70.2,65.8,75.3,70.1,65.7,100,100,98,29.97,29.69,7,0,7,1.05
2013-9-22,82.5,68.9,59.1,70.1,63.2,58.1,100,85,45,29.94,29.75,6,0,6,0.01
2013-9-23,78.8,68.4,62.3,67.0,62.3,57.1,100,84,50,30.08,29.94,0,0,0,0.00
2013-9-24,78.3,68.0,59.5,70.8,64.4,59.5,100,90,59,30.10,29.97,0,0,0,0.01
2013-9-25,70.5,66.5,64.0,68.9,66.4,64.0,100,100,92,29.97,29.89,5,0,5,0.45
2013-9-26,79.3,67.7,60.7,67.6,63.4,58.8,100,88,51,30.06,29.91,8,1,8,0.00
2013-9-27,80.7,66.7,57.1,66.4,59.9,56.0,100,83,45,30.21,30.06,8,1,8,0.01
2013-9-28,76.3,65.9,58.0,64.0,59.3,55.5,100,82,49,30.28,30.17,7,1,7,0.00
2013-9-29,77.3,66.2,58.0,66.1,60.0,54.3,100,83,46,30.21,30.06,6,0,6,0.00
2013-9-30,81.8,67.4,58.2,68.9,61.8,56.1,100,86,43,30.12,30.03,5,0,5,0.00
2013-10-1,85.2,68.5,56.6,71.9,60.9,55.3,100,82,37,30.18,30.07,7,0,7,0.00
2013-10-2,85.5,69.5,59.2,71.8,64.1,58.5,100,86,41,30.18,30.10,5,0,5,0.01
2013-10-3,88.8,71.8,60.5,70.1,64.3,58.4,100,82,37,30.17,30.10,7,0,7,0.00
2013-10-4,88.4,71.7,60.4,74.9,65.5,60.4,100,85,42,30.19,30.11,6,0,6,0.00
2013-10-5,90.2,73.2,62.2,73.9,66.1,60.2,100,83,37,30.17,30.07,2,0,2,0.01
2013-10-6,86.8,72.1,62.8,73.5,67.0,62.1,100,87,45,30.08,29.91,7,0,7,0.00
2013-10-7,78.5,70.7,59.9,75.8,68.5,59.1,100,93,67,30.02,29.84,8,0,8,0.50
2013-10-8,74.0,64.6,58.3,59.8,53.8,48.1,100,71,47,30.22,30.01,14,2,14,0.00
2013-10-9,76.5,63.0,55.1,58.3,50.1,45.6,97,66,36,30.25,30.12,10,2,10,0.00
2013-10-10,80.6,63.0,48.8,62.7,55.0,48.8,100,80,39,30.17,30.00,6,1,6,0.00
2013-10-11,85.5,67.8,56.2,62.0,57.8,50.6,100,76,32,30.04,29.96,9,1,9,0.00
2013-10-12,82.2,67.4,57.3,71.5,62.2,56.9,100,86,45,30.11,30.00,5,0,5,0.00
2013-10-13,78.3,71.5,66.2,70.1,66.2,62.1,100,85,59,30.24,30.11,7,1,7,0.00
2013-10-14,74.3,68.2,64.8,69.1,66.4,62.5,100,95,67,30.25,30.17,8,1,8,0.01
2013-10-15,72.7,64.8,59.2,66.0,62.0,58.1,100,92,61,30.22,30.08,5,0,5,0.00
2013-10-16,76.8,64.4,54.4,69.4,60.2,54.4,100,88,53,30.10,29.98,5,0,5,0.00
2013-10-17,72.4,66.6,62.5,71.1,66.3,62.5,100,99,81,30.00,29.90,6,0,6,0.23
2013-10-18,72.6,63.5,54.0,67.8,60.4,54.0,100,91,60,30.04,24.19,6,0,6,0.01
2013-10-19,68.5,62.6,53.5,66.4,61.1,53.4,100,95,72,29.99,29.89,8,0,8,0.03
2013-10-20,70.8,56.0,46.0,55.4,50.1,45.9,100,84,46,30.12,29.97,5,0,5,0.00
2013-10-21,72.5,57.2,46.1,61.3,52.8,46.1,100,88,53,30.18,24.19,7,0,7,0.01
2013-10-22,68.5,61.8,57.0,62.7,58.4,50.2,100,90,53,30.04,29.82,8,1,8,0.00
2013-10-23,72.0,56.9,45.7,58.2,45.7,34.5,100,71,33,30.07,24.19,13,2,13,0.01
2013-10-24,67.4,49.9,36.9,52.2,41.5,35.3,100,76,41,30.19,24.19,12,1,12,0.00
2013-10-25,60.4,47.1,37.5,44.2,36.9,30.6,100,71,38,31.75,26.46,9,1,9,0.00
2013-10-26,63.1,46.4,33.2,44.1,36.9,32.3,100,73,41,30.38,24.19,10,1,10,0.00
2013-10-27,74.0,55.5,42.0,61.9,48.4,39.1,100,80,45,30.14,24.19,7,0,7,0.00
2013-10-28,69.8,59.8,52.8,62.5,56.4,52.8,100,90,59,30.28,24.19,8,0,8,0.02
2013-10-29,74.3,61.3,51.1,62.6,55.9,51.1,100,85,48,30.37,24.19,5,0,5,0.00
2013-10-30,82.5,65.2,55.1,64.6,58.5,55.1,100,83,41,30.32,24.19,10,1,10,0.00
2013-10-31,75.8,65.3,56.4,68.9,61.3,56.3,100,88,59,30.21,24.19,8,1,8,0.00
2013-11-1,74.0,67.9,60.8,69.1,65.7,60.8,100,93,73,29.92,24.18,10,2,10,0.09
2013-11-2,73.8,57.8,47.1,60.8,50.6,42.7,100,80,40,30.04,24.19,12,1,12,0.04
2013-11-3,66.7,52.0,43.0,52.2,43.7,39.4,100,77,39,30.36,30.03,8,1,8,0.00
2013-11-4,61.6,50.0,42.7,46.5,39.8,34.9,98,71,40,30.51,24.19,10,1,10,0.00
2013-11-5,62.2,49.7,39.3,52.9,43.0,35.6,100,80,52,30.54,24.18,10,1,10,0.00
2013-11-6,70.0,58.7,52.7,61.5,54.7,52.6,100,88,58,31.75,24.19,207,1,207,0.00
2013-11-7,72.8,58.0,49.7,65.1,49.6,34.6,100,77,42,30.16,24.19,14,3,14,0.01
2013-11-8,65.7,50.5,39.8,35.5,30.8,21.9,82,49,21,30.31,24.19,16,4,16,0.00
2013-11-9,63.7,47.2,34.7,51.1,38.2,31.5,100,75,36,30.37,24.19,8,1,8,0.01
2013-11-10,75.3,55.3,42.2,51.8,41.7,37.2,100,66,27,30.23,30.13,6,0,6,0.00
2013-11-11,65.2,49.6,39.0,40.6,35.6,30.3,94,62,28,31.75,24.19,7,0,7,0.00
2013-11-12,68.0,47.3,33.7,47.7,35.2,18.8,100,67,37,30.46,24.18,18,4,18,0.00
2013-11-13,53.4,37.8,25.5,32.4,22.2,17.4,96,57,26,30.55,24.19,6,0,6,0.00
2013-11-14,62.4,41.5,26.7,36.3,27.3,22.3,100,62,25,31.75,24.19,9,1,9,0.00
2013-11-15,58.9,47.6,33.8,56.3,38.3,26.0,100,73,39,30.34,30.19,5,0,5,0.25
2013-11-16,66.6,56.8,50.5,62.3,55.6,50.4,100,96,76,30.27,24.18,7,0,7,0.00
2013-11-17,66.0,60.5,56.5,64.2,60.2,56.5,100,99,92,30.22,29.91,0,0,0,0.76
2013-11-18,79.2,64.2,54.1,66.3,52.6,35.0,100,71,32,30.01,24.19,14,2,14,0.02
2013-11-19,59.6,51.2,41.6,43.1,32.4,27.1,92,50,30,30.25,24.19,13,1,13,0.00
2013-11-20,54.7,46.7,38.9,41.2,33.4,30.8,85,61,43,31.75,24.19,127,2,127,0.00
2013-11-21,52.8,49.2,45.9,52.6,42.4,33.4,100,79,60,30.46,24.19,9,1,9,0.15
2013-11-22,63.2,57.3,51.2,63.1,57.3,51.1,100,100,100,30.40,24.19,7,0,7,0.04
2013-11-23,61.8,56.0,42.4,61.1,47.8,28.1,100,76,44,30.22,30.09,13,2,13,0.00
2013-11-24,47.6,38.2,31.5,29.0,21.5,17.5,73,52,34,30.51,30.22,14,2,14,0.00
2013-11-25,43.7,35.5,26.0,26.4,19.3,14.9,93,55,33,31.75,30.30,7,0,7,0.00
2013-11-26,49.4,40.4,33.6,49.3,39.1,19.2,100,96,44,30.30,24.18,9,1,9,0.84
2013-11-27,48.4,41.4,31.2,48.3,34.3,19.8,100,78,50,31.75,25.70,18,6,18,0.07
2013-11-28,76.8,36.7,26.0,34.3,26.6,-64.8,100,69,41,31.75,24.19,223,1,223,0.00
2013-11-29,56.3,39.9,28.8,37.9,29.8,25.7,100,73,32,30.58,30.44,6,0,6,0.00
2013-11-30,49.1,38.8,33.1,35.8,28.4,26.0,92,68,42,30.64,30.37,7,1,7,0.00
2013-12-1,59.3,44.0,34.5,43.9,36.8,31.3,100,78,47,30.37,24.18,7,0,7,0.00
2013-12-2,38.4,35.7,33.5,38.4,35.4,33.5,100,99,98,30.02,29.92,0,0,0,0.00
2013-12-9,49.2,47.0,46.3,49.2,47.0,46.3,100,100,100,30.09,30.05,0,0,0,0.00
2013-12-10,56.9,48.4,38.1,56.2,41.9,0.1,100,81,50,30.32,24.19,14,2,14,0.22
2013-12-11,56.1,40.5,28.7,36.9,31.6,0.0,100,74,43,31.75,24.19,8,1,8,0.00
2013-12-12,128.0,39.7,0.0,34.6,26.9,-69.3,100,64,29,31.75,24.19,239,1,239,0.00
2013-12-13,55.1,39.8,26.6,39.2,29.5,21.8,100,69,40,31.75,24.19,7,0,7,0.00
2013-12-14,44.2,42.7,40.2,44.2,39.4,31.7,100,89,65,30.26,24.18,8,1,8,0.56
2013-12-15,55.2,45.8,34.4,47.0,39.3,31.0,100,80,52,30.12,24.19,12,2,12,0.13
2013-12-16,61.6,44.8,30.4,42.6,34.7,-17.2,100,72,41,30.17,24.19,11,2,11,0.00
2013-12-17,65.2,50.9,36.7,43.8,37.0,26.9,97,61,40,30.16,29.96,17,4,17,0.00
2013-12-18,59.6,43.4,32.7,34.7,28.3,24.6,95,58,30,30.29,24.19,8,0,8,0.00
2013-12-19,64.1,45.1,30.9,39.1,30.7,26.6,100,61,29,30.32,24.19,9,1,9,0.00
2013-12-20,59.6,48.3,38.0,52.0,42.6,32.4,100,82,60,30.25,24.19,9,1,9,0.00
2013-12-21,62.2,55.9,47.6,62.2,55.9,47.6,100,100,99,30.16,30.00,6,0,6,0.03
2013-12-22,69.0,64.8,60.1,68.9,64.8,60.1,100,100,100,30.09,24.19,15,2,15,0.68
2013-12-23,61.5,57.1,47.9,61.5,54.5,37.8,100,91,68,30.18,30.00,8,1,8,0.44
2013-12-24,50.7,42.8,31.5,42.5,31.3,21.0,95,65,46,31.75,24.19,239,3,239,0.00
2013-12-25,45.1,34.1,26.3,28.0,21.4,15.4,92,61,36,30.52,24.19,6,0,6,0.00
2013-12-26,59.4,39.9,29.0,35.9,28.8,23.4,96,68,35,30.38,24.19,4,0,4,0.00
2013-12-27,54.9,39.2,29.5,36.8,29.8,-2.0,100,73,36,30.47,24.19,5,0,5,0.00
2013-12-28,51.2,37.4,28.9,46.9,33.9,0.0,100,88,52,30.41,24.19,6,0,6,0.03
2013-12-29,60.5,47.7,40.8,58.3,47.3,40.8,100,99,84,30.10,24.18,9,1,9,0.10
2013-12-30,55.2,45.8,37.0,51.1,43.7,36.9,100,93,70,30.13,24.19,8,1,8,0.01
2013-12-31,53.7,43.6,35.0,46.5,34.9,28.3,100,74,42,31.75,30.13,5,0,5,0.00
2014-1-1,52.0,40.7,32.7,41.0,34.7,30.3,100,81,54,30.99,24.19,4,0,4,0.00
2014-1-2,49.2,44.8,34.3,49.2,43.5,23.8,100,96,64,30.14,24.18,16,1,16,0.10